createdAt,value
2022-08-19T00:02:02.207Z,20.70
2022-08-19T00:05:32.973Z,20.60
2022-08-19T00:08:58.785Z,20.70
2022-08-19T00:12:22.371Z,20.60
2022-08-19T00:15:46.198Z,20.60
2022-08-19T00:19:11.693Z,20.50
2022-08-19T00:22:35.859Z,20.60
2022-08-19T00:26:02.129Z,20.60
2022-08-19T00:29:30.460Z,20.60
2022-08-19T00:32:54.739Z,20.70
2022-08-19T00:36:30.575Z,20.60
2022-08-19T00:39:53.651Z,20.50
2022-08-19T00:43:22.391Z,20.60
2022-08-19T00:46:57.773Z,20.70
2022-08-19T00:50:22.819Z,20.90
2022-08-19T00:53:47.163Z,21.00
2022-08-19T00:57:16.299Z,21.00
2022-08-19T01:00:39.803Z,20.90
2022-08-19T01:04:02.398Z,20.90
2022-08-19T01:07:25.292Z,20.80
2022-08-19T01:10:52.030Z,20.80
2022-08-19T01:14:15.680Z,20.80
2022-08-19T01:17:40.983Z,20.70
2022-08-19T01:21:09.007Z,20.60
2022-08-19T01:24:32.168Z,20.50
2022-08-19T01:27:56.172Z,20.40
2022-08-19T01:31:28.637Z,20.30
2022-08-19T01:34:53.348Z,20.30
2022-08-19T01:38:36.306Z,20.30
2022-08-19T01:42:10.372Z,20.30
2022-08-19T01:45:36.236Z,20.20
2022-08-19T01:48:58.809Z,20.10
2022-08-19T01:52:20.974Z,20.10
2022-08-19T01:55:46.677Z,20.10
2022-08-19T01:59:19.852Z,20.10
2022-08-19T02:02:44.204Z,20.00
2022-08-19T02:06:11.304Z,20.00
2022-08-19T02:09:35.283Z,19.90
2022-08-19T02:12:57.551Z,19.80
2022-08-19T02:16:21.898Z,19.80
2022-08-19T02:19:45.303Z,19.70
2022-08-19T02:23:13.350Z,19.60
2022-08-19T02:26:36.205Z,19.50
2022-08-19T02:29:59.364Z,19.50
2022-08-19T02:33:25.676Z,19.40
2022-08-19T02:36:52.451Z,19.40
2022-08-19T02:40:16.891Z,19.30
2022-08-19T02:43:44.448Z,19.30
2022-08-19T02:47:24.487Z,19.30
2022-08-19T02:50:51.826Z,19.20
2022-08-19T02:54:17.880Z,19.20
2022-08-19T02:57:43.714Z,19.20
2022-08-19T03:01:07.654Z,19.20
2022-08-19T03:04:31.337Z,19.20
2022-08-19T03:07:53.882Z,19.10
2022-08-19T03:11:28.561Z,19.00
2022-08-19T03:14:52.125Z,18.90
2022-08-19T03:18:16.278Z,18.80
2022-08-19T03:21:41.281Z,18.80
2022-08-19T03:25:04.967Z,18.80
2022-08-19T03:28:28.573Z,18.80
2022-08-19T03:31:53.340Z,18.80
2022-08-19T03:35:17.178Z,18.80
2022-08-19T03:38:45.562Z,18.90
2022-08-19T03:42:32.546Z,18.90
2022-08-19T03:46:08.591Z,19.00
2022-08-19T03:49:36.757Z,19.10
2022-08-19T03:53:00.816Z,19.10
2022-08-19T03:56:24.096Z,19.20
2022-08-19T03:59:47.374Z,19.20
2022-08-19T04:03:10.425Z,19.20
2022-08-19T04:06:38.826Z,19.20
2022-08-19T04:10:02.197Z,19.30
2022-08-19T04:13:25.487Z,19.30
2022-08-19T04:16:50.253Z,19.40
2022-08-19T04:20:13.446Z,19.50
2022-08-19T04:23:45.610Z,19.50
2022-08-19T04:27:09.796Z,19.60
2022-08-19T04:30:38.731Z,19.50
2022-08-19T04:34:03.238Z,19.70
2022-08-19T04:37:27.442Z,19.70
2022-08-19T04:41:24.674Z,19.70
2022-08-19T04:44:47.424Z,19.60
2022-08-19T04:48:26.566Z,19.40
2022-08-19T04:51:51.669Z,19.20
2022-08-19T04:55:16.161Z,19.10
2022-08-19T04:58:43.894Z,19.10
2022-08-19T05:02:08.809Z,19.10
2022-08-19T05:05:32.637Z,19.20
2022-08-19T05:09:07.860Z,19.30
2022-08-19T05:12:34.322Z,19.50
2022-08-19T05:16:00.896Z,19.60
2022-08-19T05:19:41.438Z,19.70
2022-08-19T05:23:12.795Z,19.90
2022-08-19T05:26:48.699Z,20.00
2022-08-19T05:30:13.086Z,20.20
2022-08-19T05:33:35.581Z,20.10
2022-08-19T05:36:59.789Z,19.90
2022-08-19T05:40:21.945Z,19.80
2022-08-19T05:43:45.961Z,19.70
2022-08-19T05:47:10.133Z,19.60
2022-08-19T05:50:32.316Z,19.50
2022-08-19T05:53:54.662Z,19.60
2022-08-19T05:57:17.080Z,19.50
2022-08-19T06:00:41.527Z,19.40
2022-08-19T06:04:11.570Z,19.40
2022-08-19T06:11:15.246Z,19.30
2022-08-19T06:14:41.836Z,19.30
2022-08-19T06:18:06.463Z,19.40
2022-08-19T06:21:30.577Z,19.40
2022-08-19T06:24:55.748Z,19.40
2022-08-19T06:28:20.391Z,19.50
2022-08-19T06:31:53.370Z,19.50
2022-08-19T06:35:17.723Z,19.50
2022-08-19T06:38:40.728Z,19.50
2022-08-19T06:42:07.350Z,19.40
2022-08-19T06:45:35.353Z,19.30
2022-08-19T06:49:00.563Z,19.40
2022-08-19T06:52:25.666Z,19.30
2022-08-19T06:56:02.404Z,19.30
2022-08-19T06:59:34.859Z,19.30
2022-08-19T07:03:00.874Z,19.30
2022-08-19T07:06:43.497Z,19.30
2022-08-19T07:10:09.111Z,19.40
2022-08-19T07:13:38.953Z,19.40
2022-08-19T07:17:07.350Z,19.40
2022-08-19T07:20:39.780Z,19.40
2022-08-19T07:24:14.943Z,19.30
2022-08-19T07:27:46.421Z,19.30
2022-08-19T07:31:23.825Z,19.20
2022-08-19T07:34:47.843Z,19.20
2022-08-19T07:38:15.031Z,19.20
2022-08-19T07:41:41.027Z,19.20
2022-08-19T07:45:06.591Z,19.20
2022-08-19T07:48:30.983Z,19.10
2022-08-19T07:52:07.225Z,19.10
2022-08-19T07:55:41.602Z,18.90
2022-08-19T07:59:07.538Z,18.80
2022-08-19T08:02:31.509Z,18.70
2022-08-19T08:06:13.663Z,18.80
2022-08-19T08:09:39.966Z,18.80
2022-08-19T08:13:09.401Z,18.70
2022-08-19T08:16:39.507Z,18.70
2022-08-19T08:20:09.395Z,18.70
2022-08-19T08:23:32.712Z,18.70
2022-08-19T08:27:00.421Z,18.70
2022-08-19T08:30:25.590Z,18.70
2022-08-19T08:33:55.472Z,18.70
2022-08-19T08:37:24.368Z,18.60
2022-08-19T08:40:52.791Z,18.60
2022-08-19T08:44:37.709Z,18.60
2022-08-19T08:48:05.101Z,18.70
2022-08-19T08:56:07.383Z,18.70
2022-08-19T08:59:45.704Z,18.80
2022-08-19T09:03:25.676Z,18.80
2022-08-19T09:06:56.895Z,18.80
2022-08-19T09:11:05.429Z,18.70
2022-08-19T09:15:33.610Z,18.70
2022-08-19T09:19:40.108Z,18.60
2022-08-19T09:29:37.787Z,18.50
2022-08-19T09:37:26.254Z,18.50
2022-08-19T09:41:51.334Z,18.60
2022-08-19T09:45:25.969Z,18.70
2022-08-19T09:49:38.808Z,18.70
2022-08-19T09:57:40.477Z,18.80
2022-08-19T10:06:19.295Z,18.90
2022-08-19T10:10:08.554Z,19.10
2022-08-19T10:13:37.540Z,19.50
2022-08-19T10:17:20.072Z,19.60
2022-08-19T10:21:08.948Z,19.70
2022-08-19T10:24:43.268Z,19.80
2022-08-19T10:28:11.233Z,19.90
2022-08-19T10:32:01.115Z,19.90
2022-08-19T10:35:26.693Z,20.00
2022-08-19T10:38:56.688Z,20.10
2022-08-19T10:47:17.604Z,20.60
2022-08-19T10:51:22.540Z,20.80
2022-08-19T11:03:46.635Z,21.40
2022-08-19T11:07:14.126Z,21.60
2022-08-19T11:15:54.256Z,21.90
2022-08-19T11:23:51.587Z,21.70
2022-08-19T11:36:06.798Z,21.40
2022-08-19T11:48:38.835Z,22.80
2022-08-19T11:53:01.771Z,23.40
2022-08-19T11:56:58.247Z,23.60
2022-08-19T12:00:30.685Z,23.50
2022-08-19T12:05:12.838Z,23.70
2022-08-19T12:14:35.709Z,24.30
2022-08-19T12:18:54.644Z,24.50
2022-08-19T12:22:19.508Z,24.40
2022-08-19T12:30:11.554Z,25.20
2022-08-19T12:39:10.697Z,25.70
2022-08-19T12:48:33.936Z,26.00
2022-08-19T12:52:06.445Z,26.20
2022-08-19T12:55:41.136Z,26.10
2022-08-19T12:59:06.377Z,26.20
2022-08-19T13:02:30.049Z,26.20
2022-08-19T13:05:53.953Z,26.20
2022-08-19T13:09:18.077Z,26.00
2022-08-19T13:12:43.011Z,26.00
2022-08-19T13:16:08.888Z,26.00
2022-08-19T13:19:33.485Z,26.20
2022-08-19T13:22:59.186Z,26.50
2022-08-19T13:26:22.437Z,26.60
2022-08-19T13:30:04.027Z,26.90
2022-08-19T13:33:28.650Z,27.00
2022-08-19T13:36:56.705Z,27.10
2022-08-19T13:40:25.547Z,27.10
2022-08-19T13:43:48.095Z,27.30
2022-08-19T13:47:13.759Z,27.40
2022-08-19T13:50:42.594Z,27.50
2022-08-19T13:54:05.294Z,27.60
2022-08-19T13:57:28.124Z,27.60
2022-08-19T14:00:52.059Z,27.60
2022-08-19T14:04:17.541Z,27.50
2022-08-19T14:07:40.702Z,27.40
2022-08-19T14:11:06.425Z,27.30
2022-08-19T14:14:30.364Z,27.10
2022-08-19T14:17:54.190Z,26.80
2022-08-19T14:21:27.578Z,26.60
2022-08-19T14:24:54.580Z,26.50
2022-08-19T14:28:18.272Z,26.60
2022-08-19T14:31:47.981Z,27.00
2022-08-19T14:35:12.071Z,27.50
2022-08-19T14:38:38.632Z,27.80
2022-08-19T14:42:01.209Z,27.80
2022-08-19T14:45:23.788Z,27.90
2022-08-19T14:48:48.122Z,28.20
2022-08-19T14:52:14.591Z,28.30
2022-08-19T14:55:38.417Z,28.10
2022-08-19T14:59:02.313Z,28.20
2022-08-19T15:02:33.553Z,28.50
2022-08-19T15:05:59.094Z,28.50
2022-08-19T15:09:22.285Z,28.30
2022-08-19T15:12:51.593Z,28.00
2022-08-19T15:16:18.643Z,27.90
2022-08-19T15:19:41.884Z,27.60
2022-08-19T15:23:08.261Z,27.40
2022-08-19T15:26:33.713Z,27.20
2022-08-19T15:30:01.562Z,27.10
2022-08-19T15:33:25.010Z,26.90
2022-08-19T15:36:59.885Z,26.80
2022-08-19T15:40:24.897Z,27.00
2022-08-19T15:43:50.814Z,27.20
2022-08-19T15:47:14.297Z,27.40
2022-08-19T15:50:47.996Z,27.60
2022-08-19T15:54:13.242Z,28.00
2022-08-19T15:58:05.618Z,28.10
2022-08-19T16:01:54.556Z,28.10
2022-08-19T16:09:42.118Z,27.50
2022-08-19T16:14:04.781Z,27.00
2022-08-19T16:17:33.667Z,27.00
2022-08-19T16:27:26.906Z,27.30
2022-08-19T16:30:51.119Z,27.30
2022-08-19T16:34:14.365Z,27.20
2022-08-19T16:37:36.356Z,26.90
2022-08-19T16:41:01.178Z,26.70
2022-08-19T16:44:26.531Z,26.30
2022-08-19T16:47:53.703Z,26.00
2022-08-19T16:51:19.677Z,25.70
2022-08-19T16:54:45.353Z,25.50
2022-08-19T16:58:07.724Z,25.20
2022-08-19T17:01:35.455Z,24.90
2022-08-19T17:05:03.798Z,24.80
2022-08-19T17:08:30.479Z,24.60
2022-08-19T17:11:53.809Z,24.50
2022-08-19T17:15:17.052Z,24.30
2022-08-19T17:18:43.270Z,24.10
2022-08-19T17:22:11.386Z,24.00
2022-08-19T17:25:35.762Z,23.80
2022-08-19T17:28:59.547Z,23.60
2022-08-19T17:32:24.879Z,23.40
2022-08-19T17:35:51.890Z,23.20
2022-08-19T17:39:14.811Z,23.00
2022-08-19T17:42:38.526Z,22.90
2022-08-19T17:46:05.626Z,22.70
2022-08-19T17:49:28.792Z,22.70
2022-08-19T17:52:54.031Z,22.50
2022-08-19T17:56:20.777Z,22.50
2022-08-19T17:59:49.098Z,22.30
2022-08-19T18:03:14.100Z,22.10
2022-08-19T18:06:41.900Z,22.10
2022-08-19T18:10:16.209Z,22.10
2022-08-19T18:13:39.052Z,22.00
2022-08-19T18:17:09.649Z,21.90
2022-08-19T18:20:32.628Z,21.90
2022-08-19T18:23:55.295Z,21.80
2022-08-19T18:27:25.836Z,21.70
2022-08-19T18:31:09.049Z,21.60
2022-08-19T18:34:38.181Z,21.40
2022-08-19T18:38:22.515Z,21.30
2022-08-19T18:42:03.116Z,21.10
2022-08-19T18:45:44.040Z,21.00
2022-08-19T18:49:08.582Z,20.90
2022-08-19T18:52:47.957Z,20.70
2022-08-19T18:56:14.821Z,20.60
2022-08-19T19:00:01.944Z,20.60
2022-08-19T19:03:29.940Z,20.50
2022-08-19T19:06:52.569Z,20.50
2022-08-19T19:10:14.677Z,20.40
2022-08-19T19:14:23.159Z,20.40
2022-08-19T19:26:01.048Z,20.30
2022-08-19T19:29:25.683Z,20.20
2022-08-19T19:33:20.217Z,20.30
2022-08-19T19:40:48.601Z,20.10
2022-08-19T19:44:31.034Z,19.90
2022-08-19T19:47:55.645Z,19.90
2022-08-19T19:51:20.412Z,19.80
2022-08-19T19:55:25.827Z,19.70
2022-08-19T19:58:55.941Z,19.70
2022-08-19T20:02:25.688Z,19.70
2022-08-19T20:05:55.241Z,19.70
2022-08-19T20:09:19.840Z,19.80
2022-08-19T20:12:42.418Z,19.80
2022-08-19T20:16:04.511Z,19.90
2022-08-19T20:19:34.755Z,20.00
2022-08-19T20:23:06.727Z,20.00
2022-08-19T20:27:11.569Z,20.10
2022-08-19T20:31:01.441Z,20.00
2022-08-19T20:34:36.502Z,20.10
2022-08-19T20:38:22.749Z,20.10
2022-08-19T20:41:53.128Z,20.20
2022-08-19T20:45:33.558Z,20.20
2022-08-19T20:49:00.050Z,20.20
2022-08-19T20:52:25.623Z,20.30
2022-08-19T20:55:53.262Z,20.40
2022-08-19T20:59:34.345Z,20.40
2022-08-19T21:03:00.346Z,20.50
2022-08-19T21:06:25.457Z,20.50
2022-08-19T21:10:08.048Z,20.50
2022-08-19T21:13:53.939Z,20.50
2022-08-19T21:17:20.536Z,20.50
2022-08-19T21:20:43.719Z,20.40
2022-08-19T21:24:11.843Z,20.30
2022-08-19T21:27:41.257Z,20.30
2022-08-19T21:31:05.863Z,20.10
2022-08-19T21:34:28.724Z,20.00
2022-08-19T21:38:00.604Z,19.90
2022-08-19T21:41:29.509Z,19.70
2022-08-19T21:44:57.412Z,19.70
2022-08-19T21:48:20.492Z,19.60
2022-08-19T21:51:49.275Z,19.40
2022-08-19T21:55:12.580Z,19.30
2022-08-19T21:58:46.502Z,19.20
2022-08-19T22:02:19.515Z,19.10
2022-08-19T22:05:50.442Z,19.00
2022-08-19T22:09:14.783Z,19.00
2022-08-19T22:12:51.553Z,18.90
2022-08-19T22:16:16.004Z,18.80
2022-08-19T22:19:43.774Z,18.70
2022-08-19T22:23:08.421Z,18.70
2022-08-19T22:26:32.601Z,18.60
2022-08-19T22:30:26.384Z,18.60
2022-08-19T22:33:55.765Z,18.50
2022-08-19T22:37:19.237Z,18.40
2022-08-19T22:44:58.551Z,18.30
2022-08-19T22:48:26.935Z,18.30
2022-08-19T22:52:07.866Z,18.30
2022-08-19T22:55:45.725Z,18.30
2022-08-19T22:59:21.737Z,18.20
2022-08-19T23:02:52.591Z,18.20
2022-08-19T23:06:42.373Z,18.20
2022-08-19T23:10:43.501Z,18.30
2022-08-19T23:14:12.835Z,18.30
2022-08-19T23:17:42.817Z,18.20
2022-08-19T23:21:11.715Z,18.20
2022-08-19T23:24:48.770Z,18.30
2022-08-19T23:28:39.358Z,18.30
2022-08-19T23:36:13.771Z,17.90
2022-08-19T23:39:37.294Z,17.90
2022-08-19T23:43:01.222Z,17.80
2022-08-19T23:46:28.264Z,17.80
2022-08-19T23:49:51.380Z,17.90
2022-08-19T23:53:14.573Z,17.80
2022-08-19T23:56:37.768Z,17.90
